Colombo Express — DIHC — position and weather

sailwx.info

Track history (hours):
 
Tides and Currents Weather Stations Pressure Air Temp Water Temp Dewpoint Dewpoint Depression Visibility Wind Speed Wind Dir Waves Ship Positions

Colombo Express

Last reported at 2017-Nov-20 00:30 UTC. Time now 2017-Nov-20 23:15 UTC.
Position N 51°57' E 004°03'.

Length 335.5 m; beam 42.8 m; draft 14.6 m.

Type: Ship (hazmat cat A). MMSI: 211433000.

Date/timePositionNaut miles runAvg speedWind from/ knotsBaromVisibWave heightAir tempDewpointWater temp
2017-Nov-20 00:30N 51°57' E 004°03'0 0.0
2017-Nov-20 00:00N 51°57' E 004°03'0 0.0
2017-Nov-19 23:30N 51°57' E 004°03'0 0.0
2017-Nov-19 23:00N 51°57' E 004°03'0 0.0
2017-Nov-19 22:30N 51°57' E 004°03'0 0.0
2017-Nov-19 22:00N 51°57' E 004°03'1 1.8
2017-Nov-19 21:31N 51°57' E 004°04'2 4.2
2017-Nov-19 21:01N 51°59' E 004°04'612.6
2017-Nov-19 20:30N 51°60' E 003°54'510.9
2017-Nov-19 20:00N 51°59' E 003°45'611.4
2017-Nov-19 19:30N 51°57' E 003°36'4715.7
2017-Nov-19 16:30N 51°39' E 002°26'918.8
2017-Nov-19 16:00N 51°32' E 002°16'919.0
2017-Nov-19 15:30N 51°25' E 002°07'918.4
2017-Nov-19 15:01N 51°15' E 002°06'918.7
2017-Nov-19 14:30N 51°10' E 001°53'1019.6
2017-Nov-19 14:00N 51°05' E 001°40'1020.0
2017-Nov-19 13:30N 50°57' E 001°30'1018.9
2017-Nov-19 12:59N 50°48' E 001°24'2515.7
2017-Nov-19 11:22N 50°29' E 000°57'1416.2
2017-Nov-19 10:29N 50°25' E 000°35'916.8
2017-Nov-19 09:57N 50°23' E 000°22'817.3
2017-Nov-19 09:30N 50°21' E 000°10'917.5
2017-Nov-19 09:00N 50°19' W 000°03'1019.8
2017-Nov-19 08:30N 50°17' W 000°18'1320.2
2017-Nov-19 07:52N 50°13' W 000°38'1420.1
2017-Nov-19 07:09N 50°09' W 000°59'319.9
2017-Nov-19 07:00N 50°09' W 001°04'1019.6
2017-Nov-19 06:30N 50°06' W 001°19'1019.1
2017-Nov-19 06:00N 50°04' W 001°33'918.6
2017-Nov-19 05:30N 50°02' W 001°47'917.9
2017-Nov-19 05:01N 49°60' W 002°01'917.1
2017-Nov-19 04:30N 49°58' W 002°13'1016.5
2017-Nov-19 03:54N 49°55' W 002°28'616.1
2017-Nov-19 03:30N 49°52' W 002°38'816.0
2017-Nov-19 03:00N 49°50' W 002°49'816.4
2017-Nov-19 02:30N 49°46' W 003°01'816.4
2017-Nov-19 02:01N 49°42' W 003°12'8216.5
2017-Nov-18 21:04N 49°01' W 004°60'416.3
2017-Nov-18 20:49N 48°59' W 005°05'516.4
2017-Nov-18 20:30N 48°56' W 005°11'816.7
2017-Nov-18 20:00N 48°52' W 005°22'917.2
2017-Nov-18 19:30N 48°47' W 005°34'916.7
2017-Nov-18 18:59N 48°40' W 005°41'817.1
2017-Nov-18 18:30N 48°33' W 005°47'917.4
2017-Nov-18 17:59N 48°25' W 005°53'1818.2
2017-Nov-18 16:59N 48°09' W 006°06'1019.1
2017-Nov-18 16:29N 48°00' W 006°13'1220.2
2017-Nov-18 15:52N 47°49' W 006°21'820.5
2017-Nov-18 15:29N 47°42' W 006°27'1020.6
2017-Nov-18 14:59N 47°33' W 006°34'1020.4
2017-Nov-18 14:30N 47°24' W 006°40'1019.9
2017-Nov-18 14:00N 47°16' W 006°47'1919.8
2017-Nov-18 13:04N 46°59' W 006°60'319.6
2017-Nov-18 12:54N 46°56' W 007°02'1019.3
2017-Nov-18 12:22N 46°47' W 007°09'45218.8
2017-Nov-17 12:22N 39°31' W 009°50'819.2
2017-Nov-17 11:55N 39°22' W 009°50'819.6
2017-Nov-17 11:30N 39°14' W 009°50'1019.6
2017-Nov-17 11:00N 39°04' W 009°50'1019.4
2017-Nov-17 10:30N 38°55' W 009°51'1019.6
2017-Nov-17 10:00N 38°45' W 009°51'1019.0
2017-Nov-17 09:30N 38°36' W 009°48'918.7
2017-Nov-17 09:00N 38°26' W 009°47'1019.2
2017-Nov-17 08:30N 38°17' W 009°44'1019.1
2017-Nov-17 08:00N 38°08' W 009°41'1019.6
2017-Nov-17 07:30N 37°58' W 009°38'1019.8
2017-Nov-17 07:00N 37°49' W 009°35'1019.7
2017-Nov-17 06:30N 37°39' W 009°32'1019.6
2017-Nov-17 06:00N 37°29' W 009°30'1019.4
2017-Nov-17 05:30N 37°20' W 009°27'1019.8
2017-Nov-17 05:00N 37°10' W 009°24'1019.3
2017-Nov-17 04:30N 37°01' W 009°21'1019.3
2017-Nov-17 04:00N 36°52' W 009°18'1019.4
2017-Nov-17 03:29N 36°44' W 009°09'3020.3
2017-Nov-17 02:00N 36°35' W 008°33'2819.8
2017-Nov-17 00:35N 36°27' W 007°60'620.1
2017-Nov-17 00:17N 36°25' W 007°53'719.9
2017-Nov-16 23:56N 36°23' W 007°44'10619.5
2017-Nov-16 18:28N 35°58' W 005°36'1016.0
2017-Nov-16 17:51N 36°00' W 005°24'515.7
2017-Nov-16 17:31N 36°01' W 005°18'91518.8
2017-Nov-14 16:46N 36°52' E 013°38'619.2
2017-Nov-14 16:26N 36°50' E 013°45'819.0
2017-Nov-14 16:00N 36°48' E 013°55'918.7
2017-Nov-14 15:30N 36°45' E 014°06'918.5
2017-Nov-14 15:00N 36°42' E 014°17'919.0
2017-Nov-14 14:30N 36°39' E 014°28'918.7
2017-Nov-14 14:00N 36°36' E 014°39'16420.5
2017-Nov-14 06:00N 35°36' E 017°48'45919.1 180 / 281005.110.8 19.314.120.0
2017-Nov-13 06:00N 33°12' E 026°36'36612.4 180 / 201010.4 5.4 22.216.021.0
2017-Nov-12 00:34N 29°50' E 032°34'0 0.1
2017-Nov-12 00:28N 29°50' E 032°34'0 0.0
2017-Nov-11 23:25N 29°50' E 032°34'63315.3
2017-Nov-10 06:00N 20°42' E 038°24'   010 / 81012.6 5.4 30.622.130.0
Track history (hours):
 
Tides and Currents Weather Stations Pressure Air Temp Water Temp Dewpoint Dewpoint Depression Visibility Wind Speed Wind Dir Waves Ship Positions

Colombo Express

Last reported at 2017-Nov-20 00:30 UTC. Time now 2017-Nov-20 23:15 UTC.
Position N 51°57' E 004°03'.

Length 335.5 m; beam 42.8 m; draft 14.6 m.

Type: Ship (hazmat cat A). MMSI: 211433000.

Date/timePositionNaut miles runAvg speedWind from/ knotsBaromVisibWave heightAir tempDewpointWater temp
2017-Nov-20 00:30N 51°57' E 004°03'0 0.0
2017-Nov-20 00:00N 51°57' E 004°03'0 0.0
2017-Nov-19 23:30N 51°57' E 004°03'0 0.0
2017-Nov-19 23:00N 51°57' E 004°03'0 0.0
2017-Nov-19 22:30N 51°57' E 004°03'0 0.0
2017-Nov-19 22:00N 51°57' E 004°03'1 1.8
2017-Nov-19 21:31N 51°57' E 004°04'2 4.2
2017-Nov-19 21:01N 51°59' E 004°04'612.6
2017-Nov-19 20:30N 51°60' E 003°54'510.9
2017-Nov-19 20:00N 51°59' E 003°45'611.4
2017-Nov-19 19:30N 51°57' E 003°36'4715.7
2017-Nov-19 16:30N 51°39' E 002°26'918.8
2017-Nov-19 16:00N 51°32' E 002°16'919.0
2017-Nov-19 15:30N 51°25' E 002°07'918.4
2017-Nov-19 15:01N 51°15' E 002°06'918.7
2017-Nov-19 14:30N 51°10' E 001°53'1019.6
2017-Nov-19 14:00N 51°05' E 001°40'1020.0
2017-Nov-19 13:30N 50°57' E 001°30'1018.9
2017-Nov-19 12:59N 50°48' E 001°24'2515.7
2017-Nov-19 11:22N 50°29' E 000°57'1416.2
2017-Nov-19 10:29N 50°25' E 000°35'916.8
2017-Nov-19 09:57N 50°23' E 000°22'817.3
2017-Nov-19 09:30N 50°21' E 000°10'917.5
2017-Nov-19 09:00N 50°19' W 000°03'1019.8
2017-Nov-19 08:30N 50°17' W 000°18'1320.2
2017-Nov-19 07:52N 50°13' W 000°38'1420.1
2017-Nov-19 07:09N 50°09' W 000°59'319.9
2017-Nov-19 07:00N 50°09' W 001°04'1019.6
2017-Nov-19 06:30N 50°06' W 001°19'1019.1
2017-Nov-19 06:00N 50°04' W 001°33'918.6
2017-Nov-19 05:30N 50°02' W 001°47'917.9
2017-Nov-19 05:01N 49°60' W 002°01'917.1
2017-Nov-19 04:30N 49°58' W 002°13'1016.5
2017-Nov-19 03:54N 49°55' W 002°28'616.1
2017-Nov-19 03:30N 49°52' W 002°38'816.0
2017-Nov-19 03:00N 49°50' W 002°49'816.4
2017-Nov-19 02:30N 49°46' W 003°01'816.4
2017-Nov-19 02:01N 49°42' W 003°12'8216.5
2017-Nov-18 21:04N 49°01' W 004°60'416.3
2017-Nov-18 20:49N 48°59' W 005°05'516.4
2017-Nov-18 20:30N 48°56' W 005°11'816.7
2017-Nov-18 20:00N 48°52' W 005°22'917.2
2017-Nov-18 19:30N 48°47' W 005°34'916.7
2017-Nov-18 18:59N 48°40' W 005°41'817.1
2017-Nov-18 18:30N 48°33' W 005°47'917.4
2017-Nov-18 17:59N 48°25' W 005°53'1818.2
2017-Nov-18 16:59N 48°09' W 006°06'1019.1
2017-Nov-18 16:29N 48°00' W 006°13'1220.2
2017-Nov-18 15:52N 47°49' W 006°21'820.5
2017-Nov-18 15:29N 47°42' W 006°27'1020.6
2017-Nov-18 14:59N 47°33' W 006°34'1020.4
2017-Nov-18 14:30N 47°24' W 006°40'1019.9
2017-Nov-18 14:00N 47°16' W 006°47'1919.8
2017-Nov-18 13:04N 46°59' W 006°60'319.6
2017-Nov-18 12:54N 46°56' W 007°02'1019.3
2017-Nov-18 12:22N 46°47' W 007°09'45218.8
2017-Nov-17 12:22N 39°31' W 009°50'819.2
2017-Nov-17 11:55N 39°22' W 009°50'819.6
2017-Nov-17 11:30N 39°14' W 009°50'1019.6
2017-Nov-17 11:00N 39°04' W 009°50'1019.4
2017-Nov-17 10:30N 38°55' W 009°51'1019.6
2017-Nov-17 10:00N 38°45' W 009°51'1019.0
2017-Nov-17 09:30N 38°36' W 009°48'918.7
2017-Nov-17 09:00N 38°26' W 009°47'1019.2
2017-Nov-17 08:30N 38°17' W 009°44'1019.1
2017-Nov-17 08:00N 38°08' W 009°41'1019.6
2017-Nov-17 07:30N 37°58' W 009°38'1019.8
2017-Nov-17 07:00N 37°49' W 009°35'1019.7
2017-Nov-17 06:30N 37°39' W 009°32'1019.6
2017-Nov-17 06:00N 37°29' W 009°30'1019.4
2017-Nov-17 05:30N 37°20' W 009°27'1019.8
2017-Nov-17 05:00N 37°10' W 009°24'1019.3
2017-Nov-17 04:30N 37°01' W 009°21'1019.3
2017-Nov-17 04:00N 36°52' W 009°18'1019.4
2017-Nov-17 03:29N 36°44' W 009°09'3020.3
2017-Nov-17 02:00N 36°35' W 008°33'2819.8
2017-Nov-17 00:35N 36°27' W 007°60'620.1
2017-Nov-17 00:17N 36°25' W 007°53'719.9
2017-Nov-16 23:56N 36°23' W 007°44'10619.5
2017-Nov-16 18:28N 35°58' W 005°36'1016.0
2017-Nov-16 17:51N 36°00' W 005°24'515.7
2017-Nov-16 17:31N 36°01' W 005°18'91518.8
2017-Nov-14 16:46N 36°52' E 013°38'619.2
2017-Nov-14 16:26N 36°50' E 013°45'819.0
2017-Nov-14 16:00N 36°48' E 013°55'918.7
2017-Nov-14 15:30N 36°45' E 014°06'918.5
2017-Nov-14 15:00N 36°42' E 014°17'919.0
2017-Nov-14 14:30N 36°39' E 014°28'918.7
2017-Nov-14 14:00N 36°36' E 014°39'16420.5
2017-Nov-14 06:00N 35°36' E 017°48'45919.1 180 / 281005.110.8 19.314.120.0
2017-Nov-13 06:00N 33°12' E 026°36'36612.4 180 / 201010.4 5.4 22.216.021.0
2017-Nov-12 00:34N 29°50' E 032°34'0 0.1
2017-Nov-12 00:28N 29°50' E 032°34'0 0.0
2017-Nov-11 23:25N 29°50' E 032°34'63315.3
2017-Nov-10 06:00N 20°42' E 038°24'   010 / 81012.6 5.4 30.622.130.0

Dump ship's entire track history